Time;durP1;ratioP1;P1;durP2;ratioP2;P2;SDS_P1;SDS_P2;PMS_P1;PMS_P2;Temp;Humidity;BMP_temperature;BMP_pressure;BME280_temperature;BME280_humidity;BME280_pressure;Samples;Min_cycle;Max_cycle;Signal;HPM_P1;HPM_P2
2023/01/05 00:01:16;;;;;;;0.90;0.40;;;9.50;79.50;;;;;;5025228;28;20518;-82
2023/01/05 00:03:42;;;;;;;0.68;0.40;;;9.60;79.60;;;;;;5024074;28;20037;-82
2023/01/05 00:06:13;;;;;;;0.35;0.35;;;9.50;79.60;;;;;;5025702;28;20124;-81
2023/01/05 00:08:40;;;;;;;0.60;0.40;;;9.50;79.40;;;;;;5025612;28;20073;-82
2023/01/05 00:22:30;;;;;;;0.90;0.50;;;9.60;80.60;;;;;;5026118;28;20090;-82
2023/01/05 00:25:02;;;;;;;0.50;0.40;;;9.60;80.80;;;;;;5026566;28;20299;-83
2023/01/05 00:27:29;;;;;;;0.38;0.38;;;9.60;80.50;;;;;;5028054;28;20570;-79
2023/01/05 00:29:56;;;;;;;1.00;0.60;;;9.60;80.50;;;;;;5025873;28;20029;-78
2023/01/05 00:32:22;;;;;;;0.95;0.77;;;9.60;80.40;;;;;;5024292;28;20049;-79
2023/01/05 00:34:49;;;;;;;0.50;0.50;;;9.60;80.30;;;;;;5024137;28;20041;-78
2023/01/05 00:37:16;;;;;;;1.08;0.70;;;9.60;80.10;;;;;;5018050;28;20500;-81
2023/01/05 00:39:42;;;;;;;1.95;0.70;;;9.60;80.00;;;;;;5022755;28;20441;-82
2023/01/05 00:42:08;;;;;;;0.73;0.70;;;9.60;79.60;;;;;;5024588;28;20033;-81
2023/01/05 00:44:34;;;;;;;1.00;0.68;;;9.60;79.50;;;;;;5020904;28;20083;-82
2023/01/05 00:47:00;;;;;;;0.80;0.80;;;9.60;79.40;;;;;;5035388;28;20088;-82
2023/01/05 00:49:26;;;;;;;1.27;0.85;;;9.60;79.30;;;;;;4992094;28;20033;-81
2023/01/05 00:51:52;;;;;;;2.08;0.95;;;9.60;79.30;;;;;;5035090;28;20041;-81
2023/01/05 00:54:17;;;;;;;1.10;0.80;;;9.60;79.10;;;;;;5023614;28;20507;-80
2023/01/05 00:56:48;;;;;;;0.70;0.70;;;9.60;79.10;;;;;;5005482;28;20068;-80
2023/01/05 00:59:15;;;;;;;0.88;0.88;;;9.60;78.90;;;;;;5021438;28;20065;-80
2023/01/05 01:01:41;;;;;;;1.00;0.82;;;9.60;78.90;;;;;;5018870;28;20030;-82
2023/01/05 01:04:07;;;;;;;0.90;0.70;;;9.60;78.80;;;;;;5007141;28;20046;-81
2023/01/05 01:06:33;;;;;;;1.67;1.10;;;9.60;78.70;;;;;;5025152;28;20079;-82
2023/01/05 01:08:58;;;;;;;2.10;0.90;;;9.60;78.70;;;;;;5025493;28;20653;-81
2023/01/05 01:11:24;;;;;;;1.23;1.00;;;9.60;78.70;;;;;;5040213;28;20597;-82
2023/01/05 01:13:50;;;;;;;1.05;0.95;;;9.60;78.80;;;;;;5020031;28;20029;-81
2023/01/05 01:16:16;;;;;;;1.42;0.93;;;9.60;78.90;;;;;;5023284;28;20087;-81
2023/01/05 01:18:42;;;;;;;1.58;1.05;;;9.60;78.80;;;;;;5003186;28;20098;-84
2023/01/05 01:21:09;;;;;;;1.77;1.10;;;9.60;78.90;;;;;;5008504;28;20037;-82
2023/01/05 01:23:38;;;;;;;1.00;1.00;;;9.60;78.80;;;;;;5033698;28;20038;-82
2023/01/05 01:26:08;;;;;;;1.30;1.20;;;9.60;78.80;;;;;;5025319;28;20044;-82
2023/01/05 01:28:34;;;;;;;3.22;1.33;;;9.60;78.70;;;;;;5040869;28;20124;-81
2023/01/05 01:31:01;;;;;;;1.80;1.27;;;9.60;78.70;;;;;;5024498;28;20041;-82
2023/01/05 01:33:27;;;;;;;1.35;1.08;;;9.60;78.60;;;;;;5023688;28;20041;-82
2023/01/05 01:35:54;;;;;;;1.27;1.17;;;9.60;78.50;;;;;;5024339;28;20532;-83
2023/01/05 01:38:20;;;;;;;1.58;1.48;;;9.60;78.30;;;;;;5023676;28;20040;-82
2023/01/05 01:40:47;;;;;;;2.50;1.30;;;9.60;78.20;;;;;;5024333;28;20514;-81
2023/01/05 01:43:15;;;;;;;2.83;1.73;;;9.60;78.10;;;;;;5040678;28;20125;-82
2023/01/05 01:45:42;;;;;;;1.83;1.52;;;9.60;78.00;;;;;;5023462;28;20560;-82
2023/01/05 01:48:13;;;;;;;1.55;1.45;;;9.60;78.00;;;;;;5024006;28;20924;-81
2023/01/05 01:50:45;;;;;;;1.30;1.20;;;9.60;78.00;;;;;;5019626;28;20528;-81
2023/01/05 01:53:21;;;;;;;1.50;1.40;;;9.60;78.00;;;;;;5024761;28;20036;-81
2023/01/05 01:55:48;;;;;;;;;;;9.60;77.90;;;;;;5020884;28;20034;-81
2023/01/05 01:58:16;;;;;;;1.55;1.45;;;9.60;77.80;;;;;;5033848;28;19996;-79
2023/01/05 02:00:44;;;;;;;1.50;1.30;;;9.60;77.60;;;;;;5024389;28;20041;-82
2023/01/05 02:03:10;;;;;;;1.60;1.48;;;9.60;77.50;;;;;;5023937;28;20041;-82
2023/01/05 02:05:37;;;;;;;1.77;1.60;;;9.60;77.40;;;;;;5020233;28;20056;-81
2023/01/05 02:08:08;;;;;;;2.17;1.40;;;9.60;77.40;;;;;;5015879;28;20077;-81
2023/01/05 02:11:08;;;;;;;2.08;1.55;;;9.60;77.20;;;;;;5023316;28;20040;-81
2023/01/05 02:13:49;;;;;;;1.73;1.52;;;9.60;77.20;;;;;;5023863;28;20506;-84
2023/01/05 02:16:49;;;;;;;1.92;1.30;;;9.60;77.10;;;;;;5024847;28;20041;-83
2023/01/05 02:19:52;;;;;;;2.58;1.40;;;9.60;77.60;;;;;;5025299;28;20044;-83
2023/01/05 02:22:45;;;;;;;2.15;1.50;;;9.50;76.90;;;;;;5027406;28;20124;-83
2023/01/05 02:25:23;;;;;;;1.63;1.52;;;9.50;76.90;;;;;;5028675;28;20498;-81
2023/01/05 02:27:56;;;;;;;3.30;1.75;;;9.50;76.80;;;;;;5026820;28;20068;-85
2023/01/05 02:30:40;;;;;;;1.60;1.50;;;9.50;76.80;;;;;;5027035;28;20283;-83
2023/01/05 02:33:24;;;;;;;2.00;1.30;;;9.50;76.70;;;;;;5042690;28;20456;-81
2023/01/05 02:36:18;;;;;;;2.60;1.55;;;9.50;76.60;;;;;;5043346;28;20044;-84
2023/01/05 02:39:18;;;;;;;1.48;1.38;;;9.50;76.90;;;;;;5028811;28;20065;-84
2023/01/05 02:41:51;;;;;;;1.85;1.27;;;9.50;76.80;;;;;;4951887;28;20074;-80
2023/01/05 02:44:19;;;;;;;1.80;1.13;;;9.50;76.80;;;;;;4967361;28;20046;-83
2023/01/05 02:47:00;;;;;;;1.33;1.23;;;9.50;76.80;;;;;;4951141;28;20038;-80
2023/01/05 02:49:29;;;;;;;2.08;1.40;;;9.50;76.70;;;;;;4950435;28;20050;-80
2023/01/05 02:51:58;;;;;;;1.92;1.15;;;9.50;76.70;;;;;;4966984;28;20042;-82
2023/01/05 02:54:41;;;;;;;1.30;1.20;;;9.50;76.80;;;;;;4951977;28;20034;-82
2023/01/05 02:57:15;;;;;;;1.83;1.40;;;9.50;76.60;;;;;;4950333;28;20035;-83
2023/01/05 02:59:46;;;;;;;2.03;1.42;;;9.50;76.40;;;;;;4951613;28;20073;-83
2023/01/05 03:02:21;;;;;;;1.30;1.20;;;9.50;76.40;;;;;;4967749;28;20609;-80
2023/01/05 03:05:08;;;;;;;1.60;1.08;;;9.50;76.30;;;;;;4950426;28;20039;-79
2023/01/05 03:07:38;;;;;;;1.30;1.20;;;9.50;76.20;;;;;;4949421;28;20042;-79
2023/01/05 03:15:44;;;;;;;1.60;1.00;;;9.50;75.80;;;;;;4951589;28;20066;-80
2023/01/05 03:18:14;;;;;;;1.20;1.10;;;9.40;75.60;;;;;;4982033;28;20907;-80
2023/01/05 03:20:48;;;;;;;1.42;1.10;;;9.40;75.60;;;;;;5028359;28;20037;-81
2023/01/05 03:37:54;;;;;;;1.65;1.17;;;9.40;75.10;;;;;;5028875;28;20042;-81
2023/01/05 03:40:27;;;;;;;1.40;1.27;;;9.40;75.00;;;;;;5027591;28;20485;-81
2023/01/05 03:42:54;;;;;;;1.58;1.45;;;9.40;75.00;;;;;;5025584;28;20041;-80
2023/01/05 03:45:23;;;;;;;1.52;1.40;;;9.40;75.00;;;;;;5022153;28;20041;-82
2023/01/05 03:47:50;;;;;;;1.40;1.10;;;9.30;74.80;;;;;;5025649;28;20064;-80
2023/01/05 03:50:20;;;;;;;2.38;1.23;;;9.30;74.70;;;;;;5022830;28;20111;-80
2023/01/05 03:52:46;;;;;;;1.10;1.02;;;9.30;74.70;;;;;;5026939;28;20121;-78
2023/01/05 03:55:12;;;;;;;1.10;1.00;;;9.40;74.70;;;;;;5009219;28;20040;-81
2023/01/05 03:57:39;;;;;;;1.95;1.25;;;9.30;74.60;;;;;;5009189;28;20126;-82
2023/01/05 04:00:07;;;;;;;2.78;1.20;;;9.40;74.50;;;;;;5025659;28;20042;-80
2023/01/05 04:02:44;;;;;;;1.75;1.15;;;9.30;74.50;;;;;;5032918;28;20030;-84
2023/01/05 04:05:14;;;;;;;1.20;1.10;;;9.30;74.40;;;;;;5025225;28;20177;-85
2023/01/05 04:07:40;;;;;;;1.45;1.23;;;9.30;74.30;;;;;;5031001;28;20041;-81
2023/01/05 04:10:07;;;;;;;1.73;1.00;;;9.30;74.30;;;;;;5009005;28;20148;-80
2023/01/05 04:12:33;;;;;;;1.45;1.30;;;9.30;74.20;;;;;;5027290;28;20030;-80
2023/01/05 04:14:59;;;;;;;1.38;1.27;;;9.30;74.20;;;;;;5025894;28;20038;-80
2023/01/05 04:17:25;;;;;;;1.60;1.40;;;9.30;74.10;;;;;;5006685;28;20504;-81
2023/01/05 04:19:52;;;;;;;1.30;1.20;;;9.30;73.90;;;;;;5024685;28;20120;-82
2023/01/05 04:22:20;;;;;;;1.50;1.20;;;9.30;74.00;;;;;;5024134;28;20029;-80
2023/01/05 04:24:46;;;;;;;1.45;1.33;;;9.30;74.00;;;;;;5024259;28;20037;-79
2023/01/05 04:27:12;;;;;;;1.30;1.20;;;9.30;74.00;;;;;;5008944;28;20057;-80
2023/01/05 04:29:39;;;;;;;1.95;1.00;;;9.30;74.00;;;;;;5025860;28;21606;-80
2023/01/05 04:32:05;;;;;;;1.17;1.08;;;9.20;73.90;;;;;;4988847;28;20025;-83
2023/01/05 04:34:32;;;;;;;1.67;1.27;;;9.30;74.00;;;;;;4988238;28;20438;-81
2023/01/05 04:37:00;;;;;;;1.27;1.17;;;9.30;73.90;;;;;;5025167;28;20104;-80
2023/01/05 04:39:28;;;;;;;1.10;0.98;;;9.30;74.10;;;;;;5025482;28;20112;-80
2023/01/05 04:41:55;;;;;;;1.38;1.27;;;9.30;74.00;;;;;;5025536;28;20033;-80
2023/01/05 04:44:21;;;;;;;1.50;1.30;;;9.30;74.00;;;;;;5025780;28;20447;-83
2023/01/05 04:46:48;;;;;;;1.45;1.10;;;9.20;73.90;;;;;;5024337;28;20053;-82
2023/01/05 04:49:15;;;;;;;1.30;1.20;;;9.20;73.90;;;;;;5021567;28;20531;-82
2023/01/05 04:51:41;;;;;;;1.23;1.10;;;9.20;73.70;;;;;;5006892;28;20481;-82
2023/01/05 04:54:08;;;;;;;2.83;1.23;;;9.20;73.80;;;;;;5007535;28;20824;-82
2023/01/05 04:56:34;;;;;;;1.13;1.00;;;9.20;73.80;;;;;;5025548;28;20428;-82
2023/01/05 04:59:04;;;;;;;1.52;1.15;;;9.20;73.60;;;;;;5023497;28;20037;-81
2023/01/05 05:01:30;;;;;;;1.42;1.30;;;9.30;73.70;;;;;;5009159;28;20464;-82
2023/01/05 05:03:58;;;;;;;2.15;1.30;;;9.20;73.80;;;;;;5008599;28;20394;-82
2023/01/05 05:06:25;;;;;;;1.00;0.90;;;9.20;73.80;;;;;;5003595;28;20083;-80
2023/01/05 05:08:53;;;;;;;3.13;1.35;;;9.20;73.70;;;;;;5022307;28;20088;-82
2023/01/05 05:11:19;;;;;;;1.13;1.00;;;9.20;73.80;;;;;;5024220;28;20037;-81
2023/01/05 05:13:47;;;;;;;2.15;1.60;;;9.20;73.80;;;;;;5023368;28;20124;-78
2023/01/05 05:16:13;;;;;;;1.30;1.20;;;9.20;73.90;;;;;;5022524;28;20042;-81
2023/01/05 05:18:42;;;;;;;1.38;1.02;;;9.20;74.40;;;;;;5022691;28;20064;-81
2023/01/05 05:21:13;;;;;;;1.50;1.40;;;9.20;73.60;;;;;;5008060;28;20574;-81
2023/01/05 05:23:39;;;;;;;1.48;1.38;;;9.20;73.60;;;;;;5021519;28;20459;-78
2023/01/05 05:26:06;;;;;;;1.10;0.98;;;9.20;73.50;;;;;;5025440;28;20029;-81
2023/01/05 05:28:33;;;;;;;1.25;1.15;;;9.20;73.50;;;;;;5022548;28;20060;-81
2023/01/05 05:30:59;;;;;;;1.20;1.10;;;9.20;73.30;;;;;;5023004;28;20076;-82
2023/01/05 05:33:25;;;;;;;1.48;1.20;;;9.20;73.20;;;;;;5023554;28;20061;-80
2023/01/05 05:35:51;;;;;;;1.65;1.10;;;9.10;72.90;;;;;;5024386;28;20529;-85
2023/01/05 05:38:17;;;;;;;2.58;1.40;;;9.20;72.70;;;;;;5025841;28;20035;-85
2023/01/05 05:40:43;;;;;;;1.42;1.33;;;9.20;72.60;;;;;;5034788;28;20036;-85
2023/01/05 05:43:09;;;;;;;3.03;1.40;;;9.20;72.50;;;;;;5022519;28;20041;-85
2023/01/05 05:45:35;;;;;;;3.08;1.45;;;9.20;72.40;;;;;;5021795;28;20037;-82
2023/01/05 05:48:01;;;;;;;1.55;1.40;;;9.20;72.40;;;;;;5024666;28;20515;-84
2023/01/05 05:50:27;;;;;;;1.35;1.25;;;9.10;72.20;;;;;;5023164;28;20423;-82
2023/01/05 05:52:53;;;;;;;1.40;1.30;;;9.10;72.20;;;;;;5023435;28;20060;-83
2023/01/05 05:55:19;;;;;;;2.30;1.40;;;9.10;72.00;;;;;;5025179;28;20210;-84
2023/01/05 05:57:45;;;;;;;1.30;1.20;;;9.10;72.00;;;;;;5007842;28;20044;-83
2023/01/05 06:00:11;;;;;;;1.30;1.20;;;9.10;71.90;;;;;;5024127;28;20033;-82
2023/01/05 06:02:40;;;;;;;2.28;2.00;;;9.10;72.00;;;;;;5024678;28;20625;-82
2023/01/05 06:05:07;;;;;;;1.60;1.50;;;9.10;71.80;;;;;;5022881;28;20041;-77
2023/01/05 06:07:32;;;;;;;2.30;1.40;;;9.10;71.80;;;;;;5024936;28;20075;-80
2023/01/05 06:09:58;;;;;;;2.25;1.20;;;9.10;71.80;;;;;;5023625;28;20537;-80
2023/01/05 06:12:24;;;;;;;1.83;1.73;;;9.10;71.80;;;;;;5022999;28;20037;-80
2023/01/05 06:14:50;;;;;;;1.33;1.23;;;9.10;71.70;;;;;;5025627;28;20068;-75
2023/01/05 06:17:16;;;;;;;5.20;1.63;;;9.10;71.60;;;;;;5018962;28;20033;-78
2023/01/05 06:19:42;;;;;;;3.25;1.42;;;9.10;71.50;;;;;;5020238;28;20500;-78
2023/01/05 06:22:08;;;;;;;1.58;1.48;;;9.10;71.60;;;;;;5020076;28;20038;-77
2023/01/05 06:24:34;;;;;;;1.90;1.40;;;9.10;71.60;;;;;;5019951;28;20067;-78
2023/01/05 06:27:00;;;;;;;1.77;1.67;;;9.10;71.60;;;;;;5021211;28;20554;-77
2023/01/05 06:29:26;;;;;;;1.73;1.55;;;9.10;71.60;;;;;;5018702;28;20042;-77
2023/01/05 06:31:52;;;;;;;1.40;1.30;;;9.00;71.40;;;;;;5014573;28;20025;-77
2023/01/05 06:34:17;;;;;;;2.13;1.65;;;9.10;71.40;;;;;;5018856;28;20065;-76
2023/01/05 06:36:43;;;;;;;1.55;1.40;;;9.10;71.30;;;;;;5020189;28;20037;-78
2023/01/05 06:39:09;;;;;;;3.17;1.88;;;9.00;71.20;;;;;;5002226;28;20046;-75
2023/01/05 06:41:35;;;;;;;2.45;1.67;;;9.10;71.10;;;;;;5035511;28;20034;-86
2023/01/05 06:44:01;;;;;;;1.80;1.70;;;9.10;71.10;;;;;;5019912;28;20052;-86
2023/01/05 06:46:27;;;;;;;1.50;1.40;;;9.00;70.90;;;;;;5021806;28;20038;-79
2023/01/05 06:48:53;;;;;;;2.60;1.90;;;9.00;70.80;;;;;;5038196;28;20068;-83
2023/01/05 06:51:19;;;;;;;1.98;1.77;;;9.00;70.70;;;;;;5011557;28;20041;-83
2023/01/05 06:53:45;;;;;;;1.95;1.75;;;9.00;70.50;;;;;;5021915;28;20033;-86
2023/01/05 06:56:11;;;;;;;2.28;1.70;;;9.00;70.50;;;;;;5001870;28;20439;-83
2023/01/05 06:58:37;;;;;;;2.03;1.50;;;9.00;70.50;;;;;;5023915;28;20036;-87
2023/01/05 07:01:03;;;;;;;1.42;1.33;;;9.00;71.10;;;;;;5026226;28;20069;-86
2023/01/05 07:03:29;;;;;;;2.38;1.40;;;9.00;70.50;;;;;;5024249;28;20034;-80
2023/01/05 07:05:55;;;;;;;2.88;1.80;;;9.00;70.50;;;;;;5024946;28;20036;-80
2023/01/05 07:08:21;;;;;;;2.92;1.80;;;9.00;70.60;;;;;;5024653;28;20029;-83
2023/01/05 07:10:47;;;;;;;3.58;1.55;;;9.00;70.60;;;;;;5028151;28;20045;-80
2023/01/05 07:13:12;;;;;;;3.67;1.70;;;9.00;70.50;;;;;;5026535;28;20060;-81
2023/01/05 07:15:38;;;;;;;10.65;2.00;;;9.00;70.60;;;;;;5026120;28;20057;-79
2023/01/05 07:18:04;;;;;;;2.97;1.67;;;9.00;70.70;;;;;;5027921;28;20025;-81
2023/01/05 07:20:30;;;;;;;5.03;1.50;;;9.00;70.70;;;;;;5025750;28;20642;-77
2023/01/05 07:22:56;;;;;;;3.25;1.83;;;9.00;70.50;;;;;;5027135;28;20040;-85
2023/01/05 07:25:22;;;;;;;2.95;1.63;;;9.00;70.40;;;;;;5022931;28;20037;-86
2023/01/05 07:27:51;;;;;;;3.80;1.83;;;9.00;70.30;;;;;;5002997;28;20306;-80
2023/01/05 07:30:18;;;;;;;3.92;1.70;;;9.00;70.40;;;;;;5022119;28;20041;-86
2023/01/05 07:32:44;;;;;;;3.72;1.55;;;9.00;70.30;;;;;;5023660;28;20422;-84
2023/01/05 07:35:10;;;;;;;1.70;1.60;;;9.00;70.30;;;;;;5005606;28;20034;-78
2023/01/05 07:37:35;;;;;;;2.03;1.80;;;9.00;70.30;;;;;;5020649;28;20039;-81
2023/01/05 07:40:01;;;;;;;2.30;1.67;;;9.00;70.10;;;;;;5022932;28;20056;-81
2023/01/05 07:42:29;;;;;;;3.17;1.70;;;9.00;70.00;;;;;;5024262;28;20039;-74
2023/01/05 07:44:55;;;;;;;2.97;1.90;;;9.00;70.00;;;;;;5038824;28;20052;-75
2023/01/05 07:47:21;;;;;;;4.47;2.08;;;9.00;69.90;;;;;;5024147;28;20085;-76
2023/01/05 07:49:47;;;;;;;2.80;1.70;;;9.00;69.90;;;;;;5038416;28;20033;-75
2023/01/05 07:52:13;;;;;;;4.18;1.63;;;9.00;69.80;;;;;;5022929;28;20045;-75
2023/01/05 07:54:39;;;;;;;3.25;1.70;;;9.00;69.90;;;;;;5020398;28;20107;-76
2023/01/05 07:57:05;;;;;;;2.88;1.92;;;9.00;69.70;;;;;;5021022;28;20033;-77
2023/01/05 07:59:31;;;;;;;3.58;1.90;;;9.00;69.80;;;;;;5005984;28;20045;-77
2023/01/05 08:01:57;;;;;;;2.05;1.77;;;9.00;69.70;;;;;;5023520;28;20029;-78
2023/01/05 08:04:23;;;;;;;4.40;1.95;;;9.00;69.40;;;;;;5022223;28;20034;-76
2023/01/05 08:06:50;;;;;;;3.55;1.85;;;9.00;69.70;;;;;;5021132;28;20057;-77
2023/01/05 08:12:00;;;;;;;5.13;1.50;;;9.00;69.60;;;;;;5023965;28;20073;-78
2023/01/05 08:14:26;;;;;;;2.20;1.67;;;9.00;69.40;;;;;;5023372;28;20055;-79
2023/01/05 08:16:52;;;;;;;1.83;1.60;;;9.00;69.50;;;;;;5023419;28;20512;-81
2023/01/05 08:19:18;;;;;;;2.47;1.85;;;9.00;69.50;;;;;;5006679;28;20072;-74
2023/01/05 08:21:44;;;;;;;4.20;1.73;;;8.90;69.40;;;;;;5016032;28;20065;-75
2023/01/05 08:24:10;;;;;;;3.47;1.90;;;9.00;69.40;;;;;;5019016;28;20681;-75
2023/01/05 08:26:36;;;;;;;2.97;1.92;;;9.00;69.50;;;;;;5008029;28;20045;-75
2023/01/05 08:29:02;;;;;;;4.90;2.00;;;9.00;69.40;;;;;;5008218;28;20036;-76
2023/01/05 08:31:30;;;;;;;2.03;1.70;;;9.00;70.00;;;;;;5016627;28;20045;-74
2023/01/05 08:34:01;;;;;;;2.97;2.10;;;9.00;69.70;;;;;;5022329;28;20080;-75
2023/01/05 08:36:27;;;;;;;3.40;2.10;;;9.00;69.90;;;;;;5002571;28;20034;-80
2023/01/05 08:38:54;;;;;;;5.10;1.95;;;9.00;73.40;;;;;;5023649;28;20038;-81
2023/01/05 08:41:24;;;;;;;2.45;1.90;;;9.10;78.40;;;;;;5022227;28;20037;-83
2023/01/05 08:43:52;;;;;;;3.58;1.40;;;9.20;80.40;;;;;;5031879;28;20043;-83
2023/01/05 08:46:19;;;;;;;2.88;1.58;;;9.30;81.70;;;;;;5018372;28;20128;-84
2023/01/05 08:48:50;;;;;;;2.63;1.70;;;9.30;82.20;;;;;;4993199;28;20041;-75
2023/01/05 08:51:16;;;;;;;1.92;1.60;;;9.40;80.50;;;;;;5026548;28;20093;-75
2023/01/05 08:53:43;;;;;;;4.10;1.85;;;9.50;79.60;;;;;;5025675;28;20033;-78
2023/01/05 08:56:09;;;;;;;2.42;1.90;;;9.50;77.50;;;;;;5040613;28;20033;-78
2023/01/05 08:58:36;;;;;;;3.15;1.92;;;9.50;75.80;;;;;;5027856;28;20551;-78
2023/01/05 09:01:11;;;;;;;3.65;2.10;;;9.50;74.70;;;;;;5025662;28;20040;-77
2023/01/05 09:03:37;;;;;;;3.88;2.13;;;9.50;73.70;;;;;;5026777;28;20103;-77
2023/01/05 09:06:05;;;;;;;3.47;2.10;;;9.50;73.00;;;;;;5026861;28;20038;-77
2023/01/05 09:08:32;;;;;;;3.25;2.15;;;9.40;72.30;;;;;;5027398;28;20578;-77
2023/01/05 09:11:08;;;;;;;3.78;2.03;;;9.40;71.70;;;;;;5027149;28;20056;-77
2023/01/05 09:13:34;;;;;;;3.35;1.92;;;9.40;71.00;;;;;;5025380;28;20049;-77
2023/01/05 09:16:08;;;;;;;2.58;2.03;;;9.40;70.50;;;;;;5026754;28;20041;-76
2023/01/05 09:18:35;;;;;;;3.13;2.22;;;9.30;70.00;;;;;;5014858;28;20108;-77
2023/01/05 09:21:01;;;;;;;1.98;1.88;;;9.30;69.80;;;;;;5022517;28;20044;-76
2023/01/05 09:23:27;;;;;;;3.05;2.00;;;9.30;69.70;;;;;;5006757;28;20034;-76
2023/01/05 09:25:53;;;;;;;2.50;1.70;;;9.30;69.40;;;;;;5026420;28;20112;-76
2023/01/05 09:28:19;;;;;;;2.95;2.05;;;9.30;69.50;;;;;;5027419;28;20056;-76
2023/01/05 09:30:45;;;;;;;2.17;1.77;;;9.30;69.50;;;;;;5026633;28;20092;-75
2023/01/05 09:33:10;;;;;;;4.10;2.00;;;9.20;69.20;;;;;;5027155;28;20038;-76
2023/01/05 09:35:36;;;;;;;3.53;1.92;;;9.20;69.00;;;;;;5024035;28;20033;-77
2023/01/05 09:38:02;;;;;;;3.13;1.85;;;9.20;68.80;;;;;;5027558;28;20033;-78
2023/01/05 09:40:33;;;;;;;2.50;1.85;;;9.20;68.50;;;;;;5020326;28;20143;-75
2023/01/05 09:42:59;;;;;;;2.15;1.70;;;9.10;68.10;;;;;;5024436;28;20052;-76
2023/01/05 09:45:27;;;;;;;3.05;1.67;;;9.10;68.20;;;;;;5021739;28;20033;-76
2023/01/05 09:47:56;;;;;;;2.35;2.00;;;9.10;68.10;;;;;;4990254;28;20057;-76
2023/01/05 09:50:26;;;;;;;2.72;1.90;;;9.10;67.90;;;;;;5016711;28;20364;-75
2023/01/05 09:52:56;;;;;;;2.17;1.98;;;9.10;67.60;;;;;;5024535;28;20026;-76
2023/01/05 09:55:25;;;;;;;2.13;1.73;;;9.10;67.50;;;;;;5039623;28;20129;-75
2023/01/05 09:57:53;;;;;;;2.38;2.08;;;9.10;67.40;;;;;;5038669;28;20064;-76
2023/01/05 10:00:22;;;;;;;5.85;2.20;;;9.10;67.30;;;;;;5012087;28;20251;-75
2023/01/05 10:03:07;;;;;;;1.98;1.75;;;9.10;67.10;;;;;;5023362;28;20037;-74
2023/01/05 10:05:40;;;;;;;4.68;1.92;;;9.00;67.00;;;;;;5018901;28;20044;-76
2023/01/05 10:08:15;;;;;;;3.60;1.77;;;9.00;66.90;;;;;;5018629;28;20038;-77
2023/01/05 10:14:07;;;;;;;2.67;1.85;;;9.00;66.80;;;;;;4997397;28;20458;-77
2023/01/05 10:16:33;;;;;;;3.08;1.98;;;9.00;66.70;;;;;;5035259;28;20187;-77
2023/01/05 10:19:00;;;;;;;4.22;2.10;;;9.00;66.60;;;;;;5021327;28;20132;-77
2023/01/05 10:21:43;;;;;;;2.35;1.50;;;8.90;66.70;;;;;;5038047;28;20033;-76
2023/01/05 10:24:25;;;;;;;5.05;2.20;;;8.90;66.70;;;;;;5017595;28;20037;-79
2023/01/05 10:27:05;;;;;;;3.08;1.70;;;8.90;66.50;;;;;;5018491;28;20185;-78
2023/01/05 10:29:47;;;;;;;4.07;1.80;;;8.90;66.20;;;;;;5003822;28;20636;-76
2023/01/05 10:32:16;;;;;;;3.20;1.70;;;8.90;66.00;;;;;;5002056;28;20041;-76
2023/01/05 10:35:32;;;;;;;2.92;2.13;;;8.90;65.90;;;;;;5019680;28;20588;-77
2023/01/05 10:38:08;;;;;;;2.83;1.90;;;8.90;66.10;;;;;;4961003;28;20094;-77
2023/01/05 10:40:46;;;;;;;3.42;2.13;;;8.90;66.30;;;;;;4963163;28;20046;-78
2023/01/05 10:43:32;;;;;;;3.70;1.60;;;8.90;66.50;;;;;;4962077;28;20632;-77
2023/01/05 10:45:59;;;;;;;2.50;1.73;;;8.90;66.40;;;;;;4961773;28;20051;-77
2023/01/05 10:48:32;;;;;;;2.72;1.88;;;8.80;66.30;;;;;;4947298;28;20046;-78
2023/01/05 10:50:59;;;;;;;3.03;2.10;;;8.80;66.80;;;;;;4942690;28;20047;-77
2023/01/05 10:53:27;;;;;;;2.20;1.67;;;8.80;66.00;;;;;;4955250;28;20035;-76
2023/01/05 10:55:59;;;;;;;2.78;1.75;;;8.80;66.00;;;;;;4963583;28;20133;-77
2023/01/05 10:58:31;;;;;;;3.25;2.15;;;8.80;65.90;;;;;;4961934;28;20081;-80
2023/01/05 11:01:04;;;;;;;2.58;2.00;;;8.80;66.00;;;;;;4945524;28;20731;-78
2023/01/05 11:03:42;;;;;;;2.50;1.80;;;8.80;66.10;;;;;;4947677;28;20425;-78
2023/01/05 11:06:22;;;;;;;2.53;2.00;;;8.80;66.20;;;;;;4962869;28;20104;-76
2023/01/05 11:08:49;;;;;;;3.25;1.98;;;8.80;66.20;;;;;;4961921;28;20106;-76
2023/01/05 11:11:25;;;;;;;3.75;2.25;;;8.80;66.20;;;;;;4961847;28;20051;-77
2023/01/05 11:13:55;;;;;;;5.13;2.05;;;8.80;66.30;;;;;;4966720;28;20565;-75
2023/01/05 11:16:33;;;;;;;4.43;2.30;;;8.80;66.30;;;;;;5016689;28;20038;-77
2023/01/05 11:19:02;;;;;;;2.00;1.58;;;8.80;66.20;;;;;;5018711;28;20274;-77
2023/01/05 11:21:44;;;;;;;2.30;1.85;;;8.70;66.00;;;;;;5018237;28;20095;-77
2023/01/05 11:24:30;;;;;;;4.25;2.28;;;8.70;66.00;;;;;;5019748;28;20041;-77
2023/01/05 11:27:16;;;;;;;4.15;2.00;;;8.70;66.00;;;;;;5022884;28;20053;-75
2023/01/05 11:29:42;;;;;;;2.70;2.03;;;8.70;66.10;;;;;;5018378;28;20459;-76
2023/01/05 11:32:12;;;;;;;4.38;2.30;;;8.70;66.20;;;;;;5025780;28;21081;-75
2023/01/05 11:34:43;;;;;;;4.82;2.25;;;8.70;66.20;;;;;;5026065;28;20492;-76
2023/01/05 11:37:08;;;;;;;3.13;2.00;;;8.70;66.00;;;;;;5024888;28;20065;-73
2023/01/05 11:39:39;;;;;;;2.65;2.05;;;8.70;66.10;;;;;;5025342;28;20566;-77
2023/01/05 11:42:13;;;;;;;4.00;2.28;;;8.70;66.10;;;;;;5026994;28;20088;-77
2023/01/05 11:44:42;;;;;;;2.20;1.70;;;8.70;66.10;;;;;;5026011;28;20543;-78
2023/01/05 11:47:16;;;;;;;4.05;2.03;;;8.70;66.10;;;;;;5025034;28;20060;-76
2023/01/05 11:49:42;;;;;;;5.03;2.53;;;8.70;65.90;;;;;;5026286;28;20041;-77
2023/01/05 11:52:38;;;;;;;2.53;1.83;;;8.60;65.70;;;;;;5025505;28;20042;-75
2023/01/05 11:55:18;;;;;;;5.88;2.28;;;8.70;66.00;;;;;;5025074;28;20025;-75
2023/01/05 11:57:45;;;;;;;3.83;2.28;;;8.70;67.70;;;;;;5021606;28;20041;-75
2023/01/05 12:00:33;;;;;;;2.53;2.20;;;8.70;68.30;;;;;;5024024;28;20176;-74
2023/01/05 12:03:21;;;;;;;6.90;2.42;;;8.70;67.90;;;;;;5024704;28;20056;-76
2023/01/05 12:05:54;;;;;;;3.75;2.63;;;8.70;67.00;;;;;;5024987;28;20041;-75
2023/01/05 12:08:44;;;;;;;3.38;2.47;;;8.70;66.90;;;;;;5022004;28;20084;-74
2023/01/05 12:11:21;;;;;;;5.78;2.40;;;8.70;66.40;;;;;;5019726;28;20033;-75
2023/01/05 12:13:59;;;;;;;5.03;2.55;;;8.60;66.00;;;;;;5025904;28;20112;-75
2023/01/05 12:16:27;;;;;;;4.40;2.88;;;8.60;65.90;;;;;;5021650;28;20120;-75
2023/01/05 12:19:13;;;;;;;3.50;2.50;;;8.60;65.80;;;;;;5020597;28;20045;-76
2023/01/05 12:22:23;;;;;;;4.55;2.53;;;8.60;65.60;;;;;;5025991;28;20041;-76
2023/01/05 12:25:01;;;;;;;6.75;2.60;;;8.60;65.50;;;;;;5012599;28;20075;-75
2023/01/05 12:27:36;;;;;;;6.30;2.75;;;8.60;65.30;;;;;;5025098;28;20569;-77
2023/01/05 12:30:22;;;;;;;4.25;2.55;;;8.60;65.30;;;;;;5023626;28;20128;-76
2023/01/05 12:33:21;;;;;;;4.30;2.47;;;8.50;65.10;;;;;;5023095;28;20072;-75
2023/01/05 12:35:53;;;;;;;2.53;2.22;;;8.50;65.00;;;;;;5035077;28;20519;-75
2023/01/05 12:39:02;;;;;;;3.55;2.40;;;8.50;65.00;;;;;;5024874;28;20033;-76
2023/01/05 12:41:46;;;;;;;3.55;2.45;;;8.50;65.10;;;;;;4968548;28;20039;-75
2023/01/05 12:44:42;;;;;;;2.75;2.28;;;8.50;65.00;;;;;;4969003;28;20567;-79
2023/01/05 12:47:25;;;;;;;4.13;2.78;;;8.40;65.00;;;;;;4968051;28;20031;-75
2023/01/05 12:49:59;;;;;;;4.78;2.40;;;8.40;64.90;;;;;;4968934;28;20062;-80
2023/01/05 12:52:33;;;;;;;3.53;2.30;;;8.40;64.90;;;;;;4953850;28;20070;-79
2023/01/05 12:55:09;;;;;;;5.25;3.10;;;8.40;64.80;;;;;;4968395;28;20043;-75
2023/01/05 12:57:40;;;;;;;4.53;2.58;;;8.40;64.60;;;;;;4968921;28;20053;-77
2023/01/05 13:00:16;;;;;;;4.43;2.50;;;8.40;64.40;;;;;;4966723;28;20590;-79
2023/01/05 13:02:45;;;;;;;;;;;8.40;64.30;;;;;;4950926;28;20059;-77
2023/01/05 13:05:33;;;;;;;4.72;2.75;;;8.30;64.10;;;;;;4952468;28;20016;-76
2023/01/05 13:08:25;;;;;;;7.25;2.70;;;8.30;64.00;;;;;;4969377;28;20038;-75
2023/01/05 13:10:58;;;;;;;5.65;2.42;;;8.30;63.90;;;;;;4952335;28;20047;-75
2023/01/05 13:13:45;;;;;;;3.25;2.45;;;8.30;64.00;;;;;;4967612;28;20531;-78
2023/01/05 13:16:38;;;;;;;4.15;2.63;;;8.30;63.90;;;;;;4949770;28;20528;-76
2023/01/05 13:19:17;;;;;;;5.00;2.50;;;8.20;63.80;;;;;;5015097;28;20033;-76
2023/01/05 13:21:45;;;;;;;8.85;2.65;;;8.20;63.60;;;;;;5022207;28;20045;-77
2023/01/05 13:24:39;;;;;;;4.32;3.00;;;8.20;63.50;;;;;;5020506;28;20038;-77
2023/01/05 13:27:05;;;;;;;5.90;2.90;;;8.20;63.50;;;;;;5013310;28;20084;-77
2023/01/05 13:29:39;;;;;;;4.10;2.83;;;8.10;63.40;;;;;;5037628;28;20041;-76
2023/01/05 13:32:24;;;;;;;4.28;2.90;;;8.10;63.50;;;;;;5019341;28;20037;-76
2023/01/05 13:35:23;;;;;;;4.70;2.95;;;8.10;63.60;;;;;;5022050;28;20044;-74
2023/01/05 13:38:19;;;;;;;3.60;2.63;;;8.10;63.60;;;;;;5022567;28;20389;-75
2023/01/05 13:41:03;;;;;;;5.35;2.95;;;8.10;63.70;;;;;;5021633;28;20067;-76
2023/01/05 13:43:37;;;;;;;4.40;3.35;;;8.00;63.70;;;;;;5018516;28;20053;-77
2023/01/05 13:46:25;;;;;;;4.53;2.95;;;8.00;63.90;;;;;;5020933;28;20622;-78
2023/01/05 13:49:14;;;;;;;5.28;3.22;;;8.00;64.00;;;;;;5019596;28;20049;-77
2023/01/05 13:51:57;;;;;;;5.28;3.33;;;8.00;63.00;;;;;;5019618;28;20846;-77
2023/01/05 13:54:43;;;;;;;4.82;3.15;;;7.90;61.50;;;;;;5020337;28;20447;-77
2023/01/05 13:57:19;;;;;;;4.55;3.08;;;7.90;60.90;;;;;;5019472;28;20049;-76